createdAt,value
2018-07-15T00:02:13.192Z,22.07
2018-07-15T00:05:38.019Z,21.98
2018-07-15T00:09:03.098Z,21.68
2018-07-15T00:12:27.073Z,21.78
2018-07-15T00:15:51.144Z,21.69
2018-07-15T00:19:15.943Z,21.71
2018-07-15T00:22:39.888Z,21.72
2018-07-15T00:26:03.731Z,21.81
2018-07-15T00:29:27.723Z,21.80
2018-07-15T00:32:51.651Z,21.79
2018-07-15T00:36:15.512Z,21.62
2018-07-15T00:39:39.484Z,21.63
2018-07-15T00:43:04.111Z,21.73
2018-07-15T00:46:28.866Z,21.71
2018-07-15T00:49:52.478Z,21.72
2018-07-15T00:53:16.338Z,21.43
2018-07-15T00:56:40.312Z,21.63
2018-07-15T01:00:04.326Z,21.45
2018-07-15T01:03:28.350Z,21.42
2018-07-15T01:07:02.357Z,21.47
2018-07-15T01:10:25.976Z,21.67
2018-07-15T01:13:50.433Z,21.54
2018-07-15T01:17:14.328Z,21.36
2018-07-15T01:20:38.286Z,21.38
2018-07-15T01:24:02.319Z,21.39
2018-07-15T01:27:26.227Z,21.43
2018-07-15T01:30:50.235Z,21.18
2018-07-15T01:34:14.185Z,20.79
2018-07-15T01:37:38.107Z,20.68
2018-07-15T01:41:02.006Z,20.58
2018-07-15T01:44:26.749Z,20.54
2018-07-15T01:47:51.619Z,20.54
2018-07-15T01:51:16.421Z,20.78
2018-07-15T01:54:41.240Z,20.72
2018-07-15T01:58:06.128Z,20.89
2018-07-15T02:01:30.817Z,21.00
2018-07-15T02:04:55.644Z,21.10
2018-07-15T02:08:20.438Z,20.98
2018-07-15T02:11:44.811Z,20.99
2018-07-15T02:15:09.596Z,20.98
2018-07-15T02:18:34.325Z,21.04
2018-07-15T02:21:59.135Z,20.99
2018-07-15T02:25:23.887Z,21.12
2018-07-15T02:28:48.848Z,21.15
2018-07-15T02:32:13.676Z,21.29
2018-07-15T02:35:38.400Z,21.29
2018-07-15T02:39:03.284Z,21.32
2018-07-15T02:42:28.027Z,21.41
2018-07-15T02:45:52.745Z,21.47
2018-07-15T02:49:17.243Z,21.53
2018-07-15T02:52:41.893Z,21.54
2018-07-15T02:56:06.992Z,21.53
2018-07-15T02:59:31.623Z,21.29
2018-07-15T03:02:56.501Z,21.39
2018-07-15T03:06:21.129Z,21.35
2018-07-15T03:09:45.788Z,21.34
2018-07-15T03:13:10.475Z,21.46
2018-07-15T03:16:35.268Z,21.44
2018-07-15T03:19:59.922Z,21.27
2018-07-15T03:23:24.601Z,21.32
2018-07-15T03:26:49.253Z,21.02
2018-07-15T03:30:13.960Z,20.92
2018-07-15T03:33:38.777Z,20.72
2018-07-15T03:37:03.538Z,20.67
2018-07-15T03:40:28.209Z,20.68
2018-07-15T03:43:52.534Z,21.01
2018-07-15T03:47:17.212Z,21.11
2018-07-15T03:50:41.893Z,20.96
2018-07-15T03:54:06.569Z,21.52
2018-07-15T03:57:31.265Z,21.47
2018-07-15T04:00:56.022Z,21.22
2018-07-15T04:04:20.763Z,21.38
2018-07-15T04:07:45.471Z,21.14
2018-07-15T04:11:10.204Z,21.13
2018-07-15T04:14:34.869Z,21.32
2018-07-15T04:18:04.482Z,21.15
2018-07-15T04:21:29.170Z,21.32
2018-07-15T04:24:53.801Z,21.28
2018-07-15T04:28:18.470Z,21.39
2018-07-15T04:31:43.144Z,21.31
2018-07-15T04:35:07.537Z,21.02
2018-07-15T04:38:32.223Z,21.33
2018-07-15T04:41:56.946Z,21.50
2018-07-15T04:45:21.407Z,21.46
2018-07-15T04:48:46.140Z,21.31
2018-07-15T04:52:10.800Z,21.62
2018-07-15T04:55:35.708Z,21.32
2018-07-15T04:59:00.418Z,21.64
2018-07-15T05:02:25.085Z,21.54
2018-07-15T05:05:49.800Z,21.62
2018-07-15T05:09:14.482Z,21.65
2018-07-15T05:12:39.195Z,21.73
2018-07-15T05:16:03.978Z,21.66
2018-07-15T05:19:28.782Z,21.65
2018-07-15T05:22:53.539Z,21.35
2018-07-15T05:26:18.308Z,21.40
2018-07-15T05:29:42.975Z,21.94
2018-07-15T05:33:07.731Z,21.99
2018-07-15T05:36:32.459Z,22.18
2018-07-15T05:39:57.252Z,22.00
2018-07-15T05:43:21.951Z,21.90
2018-07-15T05:46:46.721Z,21.53
2018-07-15T05:50:11.513Z,22.06
2018-07-15T05:53:36.191Z,22.21
2018-07-15T05:57:00.883Z,21.99
2018-07-15T06:00:25.273Z,21.82
2018-07-15T06:03:50.127Z,22.37
2018-07-15T06:07:14.927Z,22.01
2018-07-15T06:10:39.345Z,22.25
2018-07-15T06:14:04.119Z,22.00
2018-07-15T06:17:28.818Z,22.48
2018-07-15T06:20:53.462Z,22.33
2018-07-15T06:24:17.865Z,22.54
2018-07-15T06:27:42.552Z,22.40
2018-07-15T06:31:07.326Z,22.35
2018-07-15T06:34:31.986Z,22.64
2018-07-15T06:37:56.637Z,22.56
2018-07-15T06:41:21.259Z,22.66
2018-07-15T06:44:46.039Z,22.78
2018-07-15T06:48:10.754Z,22.94
2018-07-15T06:51:35.513Z,23.15
2018-07-15T06:55:00.210Z,23.08
2018-07-15T06:58:24.922Z,23.19
2018-07-15T07:01:50.017Z,23.25
2018-07-15T07:05:14.860Z,23.28
2018-07-15T07:08:39.570Z,23.13
2018-07-15T07:12:04.465Z,23.37
2018-07-15T07:15:29.395Z,23.46
2018-07-15T07:18:57.448Z,23.52
2018-07-15T07:22:38.242Z,23.70
2018-07-15T07:26:03.327Z,23.76
2018-07-15T07:29:28.071Z,23.72
2018-07-15T07:32:52.840Z,23.93
2018-07-15T07:36:17.555Z,24.01
2018-07-15T07:39:43.008Z,24.05
2018-07-15T07:43:07.792Z,24.20
2018-07-15T07:46:32.485Z,23.83
2018-07-15T07:49:57.210Z,24.36
2018-07-15T07:53:21.962Z,24.49
2018-07-15T07:56:46.641Z,24.57
2018-07-15T08:00:11.327Z,24.61
2018-07-15T08:03:36.156Z,24.88
2018-07-15T08:07:00.874Z,24.59
2018-07-15T08:10:25.559Z,24.78
2018-07-15T08:13:50.789Z,24.91
2018-07-15T08:17:15.243Z,24.92
2018-07-15T08:20:40.748Z,25.23
2018-07-15T08:24:05.569Z,24.85
2018-07-15T08:27:29.959Z,25.02
2018-07-15T08:31:30.482Z,25.11
2018-07-15T08:34:55.323Z,25.54
2018-07-15T08:38:20.026Z,25.26
2018-07-15T08:41:44.721Z,25.34
2018-07-15T08:45:09.419Z,25.47
2018-07-15T08:48:34.157Z,25.86
2018-07-15T08:51:58.860Z,25.98
2018-07-15T08:55:24.233Z,25.88
2018-07-15T08:58:50.365Z,26.21
2018-07-15T09:02:16.977Z,26.16
2018-07-15T09:05:41.845Z,26.31
2018-07-15T09:09:07.115Z,26.38
2018-07-15T09:12:31.832Z,26.50
2018-07-15T09:15:56.520Z,26.33
2018-07-15T09:19:21.185Z,26.62
2018-07-15T09:22:45.903Z,26.79
2018-07-15T09:26:10.671Z,26.83
2018-07-15T09:29:35.422Z,27.06
2018-07-15T09:33:00.222Z,27.00
2018-07-15T09:36:25.141Z,27.19
2018-07-15T09:39:49.830Z,27.49
2018-07-15T09:43:14.515Z,27.75
2018-07-15T09:46:39.914Z,27.41
2018-07-15T09:50:04.698Z,27.84
2018-07-15T09:53:29.347Z,27.75
2018-07-15T09:56:54.047Z,27.99
2018-07-15T10:00:23.716Z,27.98
2018-07-15T10:03:48.549Z,28.01
2018-07-15T10:07:13.261Z,28.34
2018-07-15T10:10:37.748Z,28.35
2018-07-15T10:14:02.397Z,27.73
2018-07-15T10:17:27.119Z,28.14
2018-07-15T10:20:52.047Z,28.25
2018-07-15T10:24:17.021Z,28.40
2018-07-15T10:27:41.608Z,28.77
2018-07-15T10:31:06.732Z,28.49
2018-07-15T10:34:32.265Z,28.69
2018-07-15T10:37:57.351Z,28.18
2018-07-15T10:41:24.420Z,29.05
2018-07-15T10:44:49.515Z,28.93
2018-07-15T10:48:16.169Z,28.91
2018-07-15T10:51:41.145Z,29.19
2018-07-15T10:55:07.088Z,28.84
2018-07-15T10:58:33.038Z,29.15
2018-07-15T11:02:00.708Z,29.43
2018-07-15T11:05:26.019Z,29.58
2018-07-15T11:08:50.515Z,29.51
2018-07-15T11:12:15.327Z,29.47
2018-07-15T11:15:40.008Z,29.40
2018-07-15T11:19:04.760Z,29.66
2018-07-15T11:22:29.235Z,29.86
2018-07-15T11:25:53.570Z,29.98
2018-07-15T11:29:17.906Z,28.85
2018-07-15T11:32:42.282Z,29.12
2018-07-15T11:36:07.785Z,29.50
2018-07-15T11:39:34.452Z,29.16
2018-07-15T11:42:59.764Z,29.52
2018-07-15T11:46:24.180Z,29.53
2018-07-15T11:49:49.404Z,30.26
2018-07-15T11:53:14.104Z,30.50
2018-07-15T11:56:38.901Z,30.67
2018-07-15T12:00:03.670Z,30.36
2018-07-15T12:03:28.322Z,29.93
2018-07-15T12:06:53.274Z,30.10
2018-07-15T12:10:18.280Z,29.73
2018-07-15T12:13:44.158Z,30.55
2018-07-15T12:17:09.104Z,30.05
2018-07-15T12:20:33.884Z,30.62
2018-07-15T12:23:58.622Z,31.02
2018-07-15T12:27:23.330Z,31.09
2018-07-15T12:30:48.172Z,31.19
2018-07-15T12:34:13.083Z,31.20
2018-07-15T12:37:38.035Z,31.51
2018-07-15T12:41:02.746Z,30.42
2018-07-15T12:44:28.848Z,30.10
2018-07-15T12:47:53.890Z,29.55
2018-07-15T12:51:18.750Z,30.05
2018-07-15T12:54:43.594Z,30.50
2018-07-15T12:58:08.371Z,30.54
2018-07-15T13:01:33.092Z,30.86
2018-07-15T13:04:58.143Z,30.75
2018-07-15T13:08:23.005Z,31.08
2018-07-15T13:11:47.862Z,31.10
2018-07-15T13:15:12.395Z,31.14
2018-07-15T13:18:36.771Z,30.62
2018-07-15T13:22:01.760Z,29.87
2018-07-15T13:25:26.521Z,30.64
2018-07-15T13:28:51.365Z,30.70
2018-07-15T13:32:16.124Z,30.31
2018-07-15T13:35:40.857Z,30.25
2018-07-15T13:39:07.429Z,30.42
2018-07-15T13:42:31.998Z,30.19
2018-07-15T13:45:57.056Z,30.47
2018-07-15T13:49:21.840Z,30.55
2018-07-15T13:52:46.565Z,31.29
2018-07-15T13:56:11.016Z,30.88
2018-07-15T13:59:35.807Z,30.59
2018-07-15T14:03:00.750Z,30.90
2018-07-15T14:06:25.394Z,30.69
2018-07-15T14:09:50.072Z,30.62
2018-07-15T14:13:14.732Z,31.90
2018-07-15T14:16:39.451Z,32.27
2018-07-15T14:20:05.424Z,32.26
2018-07-15T14:23:29.839Z,31.53
2018-07-15T14:26:54.776Z,31.41
2018-07-15T14:30:19.707Z,31.57
2018-07-15T14:33:44.614Z,31.17
2018-07-15T14:37:09.373Z,31.04
2018-07-15T14:40:35.009Z,30.62
2018-07-15T14:43:59.787Z,30.45
2018-07-15T14:47:24.551Z,30.27
2018-07-15T14:50:49.255Z,29.78
2018-07-15T14:54:14.043Z,29.69
2018-07-15T14:57:38.790Z,29.58
2018-07-15T15:01:03.435Z,29.53
2018-07-15T15:04:28.120Z,29.51
2018-07-15T15:07:52.836Z,28.95
2018-07-15T15:11:17.630Z,28.76
2018-07-15T15:14:42.169Z,28.57
2018-07-15T15:18:06.631Z,27.29
2018-07-15T15:21:31.135Z,26.85
2018-07-15T15:24:55.946Z,26.40
2018-07-15T15:28:20.675Z,26.25
2018-07-15T15:31:45.476Z,26.15
2018-07-15T15:35:09.922Z,25.91
2018-07-15T15:38:34.699Z,26.91
2018-07-15T15:41:59.495Z,27.23
2018-07-15T15:45:24.218Z,26.26
2018-07-15T15:48:48.981Z,27.84
2018-07-15T15:52:13.695Z,28.41
2018-07-15T15:55:38.605Z,27.87
2018-07-15T15:59:03.039Z,27.65
2018-07-15T16:02:28.005Z,27.36
2018-07-15T16:05:52.383Z,28.18
2018-07-15T16:09:17.414Z,28.18
2018-07-15T16:12:42.062Z,28.49
2018-07-15T16:16:06.711Z,27.88
2018-07-15T16:19:31.021Z,27.58
2018-07-15T16:22:55.684Z,27.00
2018-07-15T16:26:20.663Z,27.17
2018-07-15T16:29:45.341Z,26.64
2018-07-15T16:33:10.189Z,26.38
2018-07-15T16:36:35.013Z,26.58
2018-07-15T16:39:59.380Z,26.38
2018-07-15T16:43:23.836Z,26.52
2018-07-15T16:46:48.676Z,26.52
2018-07-15T16:50:13.388Z,26.27
2018-07-15T16:53:38.105Z,26.18
2018-07-15T16:57:02.540Z,26.45
2018-07-15T17:00:27.657Z,25.99
2018-07-15T17:03:52.440Z,26.06
2018-07-15T17:07:17.866Z,25.77
2018-07-15T17:10:42.725Z,25.83
2018-07-15T17:14:07.527Z,25.46
2018-07-15T17:17:31.898Z,25.44
2018-07-15T17:20:56.494Z,25.52
2018-07-15T17:24:21.179Z,25.18
2018-07-15T17:27:45.890Z,25.15
2018-07-15T17:31:10.770Z,25.11
2018-07-15T17:34:35.464Z,25.29
2018-07-15T17:38:00.149Z,25.34
2018-07-15T17:41:24.878Z,25.32
2018-07-15T17:44:49.529Z,25.28
2018-07-15T17:48:14.346Z,25.22
2018-07-15T17:51:39.063Z,25.04
2018-07-15T17:55:03.825Z,25.32
2018-07-15T17:58:28.666Z,24.94
2018-07-15T18:01:53.315Z,25.02
2018-07-15T18:05:17.969Z,25.13
2018-07-15T18:08:42.839Z,24.85
2018-07-15T18:12:07.633Z,24.85
2018-07-15T18:15:32.329Z,24.96
2018-07-15T18:18:57.202Z,24.66
2018-07-15T18:22:21.990Z,24.54
2018-07-15T18:25:53.315Z,24.63
2018-07-15T18:29:17.655Z,24.17
2018-07-15T18:32:42.882Z,24.25
2018-07-15T18:36:07.799Z,24.03
2018-07-15T18:39:32.603Z,24.11
2018-07-15T18:42:57.308Z,24.22
2018-07-15T18:46:22.300Z,24.13
2018-07-15T18:49:47.104Z,24.13
2018-07-15T18:53:11.953Z,23.92
2018-07-15T18:56:36.924Z,23.99
2018-07-15T19:00:01.721Z,23.77
2018-07-15T19:03:26.399Z,23.81
2018-07-15T19:06:51.168Z,23.69
2018-07-15T19:10:15.859Z,23.64
2018-07-15T19:13:40.932Z,23.52
2018-07-15T19:17:05.831Z,23.84
2018-07-15T19:20:30.658Z,23.54
2018-07-15T19:23:56.058Z,23.42
2018-07-15T19:27:20.820Z,23.67
2018-07-15T19:30:45.564Z,23.51
2018-07-15T19:34:09.937Z,23.69
2018-07-15T19:37:34.271Z,23.52
2018-07-15T19:40:59.003Z,23.32
2018-07-15T19:44:23.963Z,23.37
2018-07-15T19:47:48.729Z,23.27
2018-07-15T19:51:13.430Z,22.84
2018-07-15T19:54:38.112Z,22.95
2018-07-15T19:58:02.810Z,22.81
2018-07-15T20:01:27.779Z,22.55
2018-07-15T20:04:52.462Z,22.15
2018-07-15T20:08:18.165Z,21.93
2018-07-15T20:11:42.923Z,21.52
2018-07-15T20:15:08.673Z,21.54
2018-07-15T20:18:33.455Z,21.26
2018-07-15T20:21:58.808Z,21.02
2018-07-15T20:25:23.600Z,21.19
2018-07-15T20:28:48.263Z,21.05
2018-07-15T20:32:13.565Z,21.03
2018-07-15T20:35:38.897Z,21.03
2018-07-15T20:39:05.551Z,21.17
2018-07-15T20:42:31.119Z,20.80
2018-07-15T20:45:56.646Z,20.83
2018-07-15T20:49:21.843Z,20.64
2018-07-15T20:52:47.344Z,20.69
2018-07-15T20:56:13.071Z,20.68
2018-07-15T20:59:38.363Z,20.29
2018-07-15T21:03:03.684Z,20.31
2018-07-15T21:06:31.183Z,20.49
2018-07-15T21:09:57.091Z,20.56
2018-07-15T21:13:22.241Z,20.71
2018-07-15T21:16:47.482Z,20.65
2018-07-15T21:20:12.641Z,20.60
2018-07-15T21:23:38.329Z,20.85
2018-07-15T21:27:03.546Z,20.59
2018-07-15T21:30:28.880Z,20.70
2018-07-15T21:33:57.424Z,20.81
2018-07-15T21:37:22.495Z,20.94
2018-07-15T21:40:47.543Z,20.95
2018-07-15T21:44:12.722Z,20.93
2018-07-15T21:47:37.902Z,20.86
2018-07-15T21:51:02.699Z,20.90
2018-07-15T21:54:27.396Z,20.89
2018-07-15T21:57:56.092Z,21.02
2018-07-15T22:01:21.470Z,20.76
2018-07-15T22:04:46.937Z,20.72
2018-07-15T22:08:28.927Z,20.96
2018-07-15T22:11:54.263Z,21.01
2018-07-15T22:15:19.309Z,20.80
2018-07-15T22:18:44.057Z,20.68
2018-07-15T22:22:09.023Z,20.69
2018-07-15T22:25:33.781Z,20.74
2018-07-15T22:30:27.555Z,20.69
2018-07-15T22:33:52.274Z,20.41
2018-07-15T22:37:16.643Z,20.63
2018-07-15T22:40:41.440Z,20.59
2018-07-15T22:44:06.070Z,20.73
2018-07-15T22:47:30.837Z,20.51
2018-07-15T22:50:55.669Z,20.54
2018-07-15T22:54:20.522Z,20.55
2018-07-15T22:57:45.270Z,20.44
2018-07-15T23:01:10.154Z,20.32
2018-07-15T23:05:54.370Z,20.60
2018-07-15T23:09:20.445Z,20.55
2018-07-15T23:12:45.547Z,20.08
2018-07-15T23:16:11.156Z,20.07
2018-07-15T23:19:36.486Z,20.17
2018-07-15T23:23:02.524Z,19.85
2018-07-15T23:26:29.109Z,20.00
2018-07-15T23:29:54.184Z,19.94
2018-07-15T23:33:19.237Z,19.85
2018-07-15T23:36:44.139Z,20.11
2018-07-15T23:40:09.115Z,20.15
2018-07-15T23:43:33.684Z,20.01
2018-07-15T23:46:58.805Z,19.97
2018-07-15T23:50:24.093Z,20.15
2018-07-15T23:53:49.944Z,19.79
2018-07-15T23:57:15.014Z,19.57
